Suring, Wisconsin
Current Conditions -  °F | °C
As of 7:35 AM on Sunday 23 Nov 2014 (Local Time) from KEZS Reporting Station
Haze Haze  
Wind Chill: 46°   Ceiling: 300
Heat Index: 48°   Visibility: 4mi
Dew Point: 47°   Wind: 6mph
Humidity: 95%   Direction: 180°S
Pressure: 29.6"   Gusts: NA
Location:  45°N, 88.37°W
Report Text: KEZS 231335Z AUTO 18005KT 4SM BR OVC003 09/08 A2960 RMK AO2 T00900083
Loading
Personal Weather Stations






























Interactive Weather Map New forecast layout! Learn more

10-Day Weather Forecast

Advertisements
Track Severe Weather on mobile